sensor_id;sensor_type;location;lat;lon;timestamp;temperature;humidity
65239;SHT30;51827;51.186;6.926;2023-07-13T00:00:50;20.95;53.87
65239;SHT30;51827;51.186;6.926;2023-07-13T00:01:50;20.89;54.02
65239;SHT30;51827;51.186;6.926;2023-07-13T00:02:51;20.92;53.95
65239;SHT30;51827;51.186;6.926;2023-07-13T00:03:51;21.00;53.91
65239;SHT30;51827;51.186;6.926;2023-07-13T00:04:51;21.03;53.68
65239;SHT30;51827;51.186;6.926;2023-07-13T00:05:59;21.06;53.80
65239;SHT30;51827;51.186;6.926;2023-07-13T00:07:00;21.09;53.73
65239;SHT30;51827;51.186;6.926;2023-07-13T00:08:00;21.09;53.73
65239;SHT30;51827;51.186;6.926;2023-07-13T00:09:01;21.03;52.72
65239;SHT30;51827;51.186;6.926;2023-07-13T00:10:02;21.03;53.59
65239;SHT30;51827;51.186;6.926;2023-07-13T00:11:03;20.92;52.88
65239;SHT30;51827;51.186;6.926;2023-07-13T00:12:04;20.95;53.88
65239;SHT30;51827;51.186;6.926;2023-07-13T00:13:04;20.76;53.88
65239;SHT30;51827;51.186;6.926;2023-07-13T00:14:04;20.82;53.98
65239;SHT30;51827;51.186;6.926;2023-07-13T00:15:13;20.81;53.66
65239;SHT30;51827;51.186;6.926;2023-07-13T00:16:13;20.82;54.05
65239;SHT30;51827;51.186;6.926;2023-07-13T00:17:14;20.91;53.94
65239;SHT30;51827;51.186;6.926;2023-07-13T00:18:14;20.95;53.90
65239;SHT30;51827;51.186;6.926;2023-07-13T00:19:14;20.98;53.74
65239;SHT30;51827;51.186;6.926;2023-07-13T00:20:15;21.00;53.59
65239;SHT30;51827;51.186;6.926;2023-07-13T00:21:15;20.98;53.57
65239;SHT30;51827;51.186;6.926;2023-07-13T00:22:15;20.95;53.66
65239;SHT30;51827;51.186;6.926;2023-07-13T00:23:16;20.95;53.75
65239;SHT30;51827;51.186;6.926;2023-07-13T00:24:18;20.92;53.78
65239;SHT30;51827;51.186;6.926;2023-07-13T00:25:19;20.88;53.79
65239;SHT30;51827;51.186;6.926;2023-07-13T00:26:19;20.88;53.83
65239;SHT30;51827;51.186;6.926;2023-07-13T00:27:19;20.85;53.88
65239;SHT30;51827;51.186;6.926;2023-07-13T00:28:19;20.85;53.91
65239;SHT30;51827;51.186;6.926;2023-07-13T00:29:20;20.81;53.92
65239;SHT30;51827;51.186;6.926;2023-07-13T00:30:21;20.73;54.04
65239;SHT30;51827;51.186;6.926;2023-07-13T00:31:21;20.76;54.21
65239;SHT30;51827;51.186;6.926;2023-07-13T00:32:21;20.67;54.14
65239;SHT30;51827;51.186;6.926;2023-07-13T00:33:22;20.69;54.39
65239;SHT30;51827;51.186;6.926;2023-07-13T00:34:22;20.72;54.36
65239;SHT30;51827;51.186;6.926;2023-07-13T00:35:22;20.76;54.26
65239;SHT30;51827;51.186;6.926;2023-07-13T00:36:22;20.75;54.24
65239;SHT30;51827;51.186;6.926;2023-07-13T00:37:23;20.75;54.24
65239;SHT30;51827;51.186;6.926;2023-07-13T00:38:24;20.76;54.22
65239;SHT30;51827;51.186;6.926;2023-07-13T00:39:25;20.71;54.35
65239;SHT30;51827;51.186;6.926;2023-07-13T00:40:25;20.73;54.46
65239;SHT30;51827;51.186;6.926;2023-07-13T00:41:25;20.73;54.46
65239;SHT30;51827;51.186;6.926;2023-07-13T00:42:25;20.58;53.92
65239;SHT30;51827;51.186;6.926;2023-07-13T00:43:27;20.65;54.50
65239;SHT30;51827;51.186;6.926;2023-07-13T00:44:28;20.69;54.56
65239;SHT30;51827;51.186;6.926;2023-07-13T00:46:31;20.68;54.23
65239;SHT30;51827;51.186;6.926;2023-07-13T00:47:31;20.53;54.01
65239;SHT30;51827;51.186;6.926;2023-07-13T00:48:34;20.51;54.80
65239;SHT30;51827;51.186;6.926;2023-07-13T00:49:35;20.53;54.73
65239;SHT30;51827;51.186;6.926;2023-07-13T00:50:37;20.45;55.03
65239;SHT30;51827;51.186;6.926;2023-07-13T00:52:52;20.37;55.03
65239;SHT30;51827;51.186;6.926;2023-07-13T00:53:56;20.25;55.04
65239;SHT30;51827;51.186;6.926;2023-07-13T00:54:58;19.98;55.51
65239;SHT30;51827;51.186;6.926;2023-07-13T00:55:59;19.74;56.18
65239;SHT30;51827;51.186;6.926;2023-07-13T00:57:00;19.52;56.60
65239;SHT30;51827;51.186;6.926;2023-07-13T00:58:02;19.46;57.06
65239;SHT30;51827;51.186;6.926;2023-07-13T01:00:05;19.60;56.77
65239;SHT30;51827;51.186;6.926;2023-07-13T01:01:06;19.84;56.50
65239;SHT30;51827;51.186;6.926;2023-07-13T01:02:06;19.87;56.39
65239;SHT30;51827;51.186;6.926;2023-07-13T01:03:07;19.95;56.33
65239;SHT30;51827;51.186;6.926;2023-07-13T01:04:07;20.07;56.17
65239;SHT30;51827;51.186;6.926;2023-07-13T01:05:16;19.94;55.99
65239;SHT30;51827;51.186;6.926;2023-07-13T01:06:17;19.93;56.33
65239;SHT30;51827;51.186;6.926;2023-07-13T01:07:18;20.04;56.24
65239;SHT30;51827;51.186;6.926;2023-07-13T01:08:18;20.17;56.01
65239;SHT30;51827;51.186;6.926;2023-07-13T01:09:19;20.22;55.98
65239;SHT30;51827;51.186;6.926;2023-07-13T01:10:22;20.14;55.80
65239;SHT30;51827;51.186;6.926;2023-07-13T01:11:23;20.18;55.90
65239;SHT30;51827;51.186;6.926;2023-07-13T01:12:23;20.18;55.60
65239;SHT30;51827;51.186;6.926;2023-07-13T01:13:24;20.27;55.85
65239;SHT30;51827;51.186;6.926;2023-07-13T01:14:24;20.35;55.66
65239;SHT30;51827;51.186;6.926;2023-07-13T01:15:58;20.39;55.48
65239;SHT30;51827;51.186;6.926;2023-07-13T01:17:00;20.35;55.34
65239;SHT30;51827;51.186;6.926;2023-07-13T01:18:00;20.28;55.88
65239;SHT30;51827;51.186;6.926;2023-07-13T01:19:03;20.24;55.38
65239;SHT30;51827;51.186;6.926;2023-07-13T01:20:08;20.31;55.76
65239;SHT30;51827;51.186;6.926;2023-07-13T01:21:08;20.37;55.64
65239;SHT30;51827;51.186;6.926;2023-07-13T01:22:14;20.38;55.46
65239;SHT30;51827;51.186;6.926;2023-07-13T01:23:15;20.34;55.64
65239;SHT30;51827;51.186;6.926;2023-07-13T01:24:15;20.28;55.66
65239;SHT30;51827;51.186;6.926;2023-07-13T01:25:15;20.34;55.71
65239;SHT30;51827;51.186;6.926;2023-07-13T01:26:16;20.38;55.62
65239;SHT30;51827;51.186;6.926;2023-07-13T01:27:21;20.20;55.88
65239;SHT30;51827;51.186;6.926;2023-07-13T01:28:23;20.27;55.82
65239;SHT30;51827;51.186;6.926;2023-07-13T01:29:24;20.37;55.70
65239;SHT30;51827;51.186;6.926;2023-07-13T01:30:24;20.38;55.71
65239;SHT30;51827;51.186;6.926;2023-07-13T01:31:24;20.45;55.57
65239;SHT30;51827;51.186;6.926;2023-07-13T01:32:24;20.32;55.39
65239;SHT30;51827;51.186;6.926;2023-07-13T01:33:25;20.42;55.57
65239;SHT30;51827;51.186;6.926;2023-07-13T01:34:26;20.47;55.50
65239;SHT30;51827;51.186;6.926;2023-07-13T01:35:27;20.35;55.54
65239;SHT30;51827;51.186;6.926;2023-07-13T01:36:27;20.42;55.67
65239;SHT30;51827;51.186;6.926;2023-07-13T01:37:27;20.42;55.65
65239;SHT30;51827;51.186;6.926;2023-07-13T01:38:28;20.45;55.43
65239;SHT30;51827;51.186;6.926;2023-07-13T01:39:28;20.39;55.71
65239;SHT30;51827;51.186;6.926;2023-07-13T01:40:29;20.39;55.63
65239;SHT30;51827;51.186;6.926;2023-07-13T01:41:29;20.24;55.56
65239;SHT30;51827;51.186;6.926;2023-07-13T01:42:29;20.28;56.13
65239;SHT30;51827;51.186;6.926;2023-07-13T01:43:30;20.32;56.03
65239;SHT30;51827;51.186;6.926;2023-07-13T01:44:30;20.35;55.92
65239;SHT30;51827;51.186;6.926;2023-07-13T01:45:31;20.29;56.02
65239;SHT30;51827;51.186;6.926;2023-07-13T01:46:31;20.17;56.24
65239;SHT30;51827;51.186;6.926;2023-07-13T01:47:31;20.11;56.35
65239;SHT30;51827;51.186;6.926;2023-07-13T01:48:32;20.00;56.45
65239;SHT30;51827;51.186;6.926;2023-07-13T01:49:32;19.94;56.78
65239;SHT30;51827;51.186;6.926;2023-07-13T01:50:33;19.90;56.80
65239;SHT30;51827;51.186;6.926;2023-07-13T01:51:33;19.85;56.99
65239;SHT30;51827;51.186;6.926;2023-07-13T01:52:33;19.75;56.97
65239;SHT30;51827;51.186;6.926;2023-07-13T01:53:34;19.81;57.23
65239;SHT30;51827;51.186;6.926;2023-07-13T01:54:34;19.80;56.86
65239;SHT30;51827;51.186;6.926;2023-07-13T01:55:34;19.84;57.07
65239;SHT30;51827;51.186;6.926;2023-07-13T01:56:35;19.75;57.24
65239;SHT30;51827;51.186;6.926;2023-07-13T01:57:35;19.91;57.03
65239;SHT30;51827;51.186;6.926;2023-07-13T01:58:35;20.04;56.82
65239;SHT30;51827;51.186;6.926;2023-07-13T01:59:35;20.07;56.73
65239;SHT30;51827;51.186;6.926;2023-07-13T02:00:36;20.14;56.45
65239;SHT30;51827;51.186;6.926;2023-07-13T02:01:36;20.11;56.75
65239;SHT30;51827;51.186;6.926;2023-07-13T02:02:36;20.15;56.59
65239;SHT30;51827;51.186;6.926;2023-07-13T02:03:36;20.15;56.53
65239;SHT30;51827;51.186;6.926;2023-07-13T02:04:37;20.21;56.40
65239;SHT30;51827;51.186;6.926;2023-07-13T02:05:37;20.22;56.48
65239;SHT30;51827;51.186;6.926;2023-07-13T02:06:37;20.25;56.30
65239;SHT30;51827;51.186;6.926;2023-07-13T02:07:38;20.29;56.26
65239;SHT30;51827;51.186;6.926;2023-07-13T02:08:40;20.37;56.28
65239;SHT30;51827;51.186;6.926;2023-07-13T02:09:41;20.32;56.23
65239;SHT30;51827;51.186;6.926;2023-07-13T02:10:41;20.39;56.16
65239;SHT30;51827;51.186;6.926;2023-07-13T02:11:41;20.37;56.17
65239;SHT30;51827;51.186;6.926;2023-07-13T02:12:42;20.29;56.24
65239;SHT30;51827;51.186;6.926;2023-07-13T02:13:42;20.37;56.20
65239;SHT30;51827;51.186;6.926;2023-07-13T02:14:43;20.37;56.22
65239;SHT30;51827;51.186;6.926;2023-07-13T02:15:43;20.42;56.14
65239;SHT30;51827;51.186;6.926;2023-07-13T02:16:43;20.44;56.11
65239;SHT30;51827;51.186;6.926;2023-07-13T02:17:43;20.42;56.13
65239;SHT30;51827;51.186;6.926;2023-07-13T02:18:44;20.41;56.21
65239;SHT30;51827;51.186;6.926;2023-07-13T02:19:44;20.31;56.21
65239;SHT30;51827;51.186;6.926;2023-07-13T02:20:44;20.35;56.37
65239;SHT30;51827;51.186;6.926;2023-07-13T02:21:45;20.25;56.29
65239;SHT30;51827;51.186;6.926;2023-07-13T02:22:45;20.29;56.52
65239;SHT30;51827;51.186;6.926;2023-07-13T02:23:45;20.13;57.07
65239;SHT30;51827;51.186;6.926;2023-07-13T02:24:45;20.15;56.77
65239;SHT30;51827;51.186;6.926;2023-07-13T02:25:49;20.20;56.71
65239;SHT30;51827;51.186;6.926;2023-07-13T02:26:49;20.22;56.72
65239;SHT30;51827;51.186;6.926;2023-07-13T02:27:49;20.18;56.75
65239;SHT30;51827;51.186;6.926;2023-07-13T02:28:49;20.24;56.72
65239;SHT30;51827;51.186;6.926;2023-07-13T02:29:50;20.22;56.62
65239;SHT30;51827;51.186;6.926;2023-07-13T02:30:50;20.17;56.58
65239;SHT30;51827;51.186;6.926;2023-07-13T02:31:50;20.27;56.74
65239;SHT30;51827;51.186;6.926;2023-07-13T02:32:51;20.17;56.38
65239;SHT30;51827;51.186;6.926;2023-07-13T02:33:51;20.18;56.81
65239;SHT30;51827;51.186;6.926;2023-07-13T02:34:52;20.03;56.76
65239;SHT30;51827;51.186;6.926;2023-07-13T02:35:52;20.04;57.24
65239;SHT30;51827;51.186;6.926;2023-07-13T02:36:52;20.00;57.13
65239;SHT30;51827;51.186;6.926;2023-07-13T02:37:52;19.97;57.26
65239;SHT30;51827;51.186;6.926;2023-07-13T02:38:53;19.94;57.35
65239;SHT30;51827;51.186;6.926;2023-07-13T02:39:53;19.93;57.28
65239;SHT30;51827;51.186;6.926;2023-07-13T02:40:53;19.87;57.57
65239;SHT30;51827;51.186;6.926;2023-07-13T02:41:53;19.87;57.70
65239;SHT30;51827;51.186;6.926;2023-07-13T02:42:54;19.90;57.64
65239;SHT30;51827;51.186;6.926;2023-07-13T02:43:54;20.00;57.35
65239;SHT30;51827;51.186;6.926;2023-07-13T02:44:57;20.08;57.21
65239;SHT30;51827;51.186;6.926;2023-07-13T02:45:59;20.11;57.08
65239;SHT30;51827;51.186;6.926;2023-07-13T02:46:59;20.14;56.98
65239;SHT30;51827;51.186;6.926;2023-07-13T02:47:59;20.13;57.01
65239;SHT30;51827;51.186;6.926;2023-07-13T02:49:00;20.17;56.91
65239;SHT30;51827;51.186;6.926;2023-07-13T02:50:00;20.18;56.93
65239;SHT30;51827;51.186;6.926;2023-07-13T02:51:00;20.22;56.82
65239;SHT30;51827;51.186;6.926;2023-07-13T02:52:03;20.24;56.82
65239;SHT30;51827;51.186;6.926;2023-07-13T02:53:03;20.14;56.95
65239;SHT30;51827;51.186;6.926;2023-07-13T02:54:04;20.17;56.92
65239;SHT30;51827;51.186;6.926;2023-07-13T02:55:05;20.15;56.92
65239;SHT30;51827;51.186;6.926;2023-07-13T02:56:05;20.18;56.98
65239;SHT30;51827;51.186;6.926;2023-07-13T02:57:06;19.97;57.14
65239;SHT30;51827;51.186;6.926;2023-07-13T02:58:07;19.85;57.69
65239;SHT30;51827;51.186;6.926;2023-07-13T02:59:07;19.94;57.64
65239;SHT30;51827;51.186;6.926;2023-07-13T03:00:07;19.97;57.67
65239;SHT30;51827;51.186;6.926;2023-07-13T03:01:09;19.98;57.43
65239;SHT30;51827;51.186;6.926;2023-07-13T03:02:09;19.84;57.73
65239;SHT30;51827;51.186;6.926;2023-07-13T03:03:10;19.64;58.54
65239;SHT30;51827;51.186;6.926;2023-07-13T03:04:10;19.67;58.40
65239;SHT30;51827;51.186;6.926;2023-07-13T03:05:10;19.73;58.42
65239;SHT30;51827;51.186;6.926;2023-07-13T03:06:11;19.56;58.59
65239;SHT30;51827;51.186;6.926;2023-07-13T03:07:11;19.23;59.42
65239;SHT30;51827;51.186;6.926;2023-07-13T03:08:11;19.29;59.54
65239;SHT30;51827;51.186;6.926;2023-07-13T03:09:12;19.30;59.47
65239;SHT30;51827;51.186;6.926;2023-07-13T03:10:12;19.43;59.35
65239;SHT30;51827;51.186;6.926;2023-07-13T03:11:18;19.33;59.42
65239;SHT30;51827;51.186;6.926;2023-07-13T03:12:18;19.43;59.53
65239;SHT30;51827;51.186;6.926;2023-07-13T03:13:18;19.49;59.03
65239;SHT30;51827;51.186;6.926;2023-07-13T03:14:19;19.49;59.29
65239;SHT30;51827;51.186;6.926;2023-07-13T03:15:22;19.52;59.36
65239;SHT30;51827;51.186;6.926;2023-07-13T03:16:22;19.62;58.99
65239;SHT30;51827;51.186;6.926;2023-07-13T03:17:23;19.57;58.98
65239;SHT30;51827;51.186;6.926;2023-07-13T03:18:23;19.32;59.45
65239;SHT30;51827;51.186;6.926;2023-07-13T03:19:24;19.26;59.82
65239;SHT30;51827;51.186;6.926;2023-07-13T03:20:24;19.33;59.75
65239;SHT30;51827;51.186;6.926;2023-07-13T03:21:24;19.36;59.59
65239;SHT30;51827;51.186;6.926;2023-07-13T03:22:27;19.08;60.26
65239;SHT30;51827;51.186;6.926;2023-07-13T03:23:27;19.16;60.25
65239;SHT30;51827;51.186;6.926;2023-07-13T03:24:27;19.27;59.83
65239;SHT30;51827;51.186;6.926;2023-07-13T03:25:28;19.19;60.02
65239;SHT30;51827;51.186;6.926;2023-07-13T03:26:28;19.05;60.44
65239;SHT30;51827;51.186;6.926;2023-07-13T03:27:28;19.02;60.40
65239;SHT30;51827;51.186;6.926;2023-07-13T03:28:28;18.86;60.82
65239;SHT30;51827;51.186;6.926;2023-07-13T03:29:29;18.72;60.99
65239;SHT30;51827;51.186;6.926;2023-07-13T03:30:29;18.47;61.68
65239;SHT30;51827;51.186;6.926;2023-07-13T03:31:32;18.49;61.79
65239;SHT30;51827;51.186;6.926;2023-07-13T03:32:33;18.71;61.43
65239;SHT30;51827;51.186;6.926;2023-07-13T03:33:34;18.92;61.05
65239;SHT30;51827;51.186;6.926;2023-07-13T03:34:34;19.03;60.66
65239;SHT30;51827;51.186;6.926;2023-07-13T03:35:35;19.12;60.66
65239;SHT30;51827;51.186;6.926;2023-07-13T03:36:35;19.26;60.14
65239;SHT30;51827;51.186;6.926;2023-07-13T03:37:38;19.46;59.84
65239;SHT30;51827;51.186;6.926;2023-07-13T03:38:38;19.66;59.36
65239;SHT30;51827;51.186;6.926;2023-07-13T03:39:38;19.91;59.28
65239;SHT30;51827;51.186;6.926;2023-07-13T03:40:39;20.18;58.95
65239;SHT30;51827;51.186;6.926;2023-07-13T03:41:39;20.14;58.46
65239;SHT30;51827;51.186;6.926;2023-07-13T03:42:39;20.29;58.43
65239;SHT30;51827;51.186;6.926;2023-07-13T03:43:39;20.31;58.14
65239;SHT30;51827;51.186;6.926;2023-07-13T03:44:40;20.37;57.78
65239;SHT30;51827;51.186;6.926;2023-07-13T03:45:41;20.39;57.52
65239;SHT30;51827;51.186;6.926;2023-07-13T03:46:41;20.45;57.29
65239;SHT30;51827;51.186;6.926;2023-07-13T03:47:41;20.48;57.14
65239;SHT30;51827;51.186;6.926;2023-07-13T03:48:43;20.32;57.06
65239;SHT30;51827;51.186;6.926;2023-07-13T03:49:44;20.17;57.68
65239;SHT30;51827;51.186;6.926;2023-07-13T03:50:44;20.21;57.63
65239;SHT30;51827;51.186;6.926;2023-07-13T03:51:44;20.31;57.46
65239;SHT30;51827;51.186;6.926;2023-07-13T03:52:44;20.37;57.21
65239;SHT30;51827;51.186;6.926;2023-07-13T03:53:46;20.39;57.20
65239;SHT30;51827;51.186;6.926;2023-07-13T03:54:46;20.42;57.06
65239;SHT30;51827;51.186;6.926;2023-07-13T03:55:47;20.44;56.92
65239;SHT30;51827;51.186;6.926;2023-07-13T03:56:47;20.37;56.97
65239;SHT30;51827;51.186;6.926;2023-07-13T03:57:47;20.34;57.35
65239;SHT30;51827;51.186;6.926;2023-07-13T03:58:49;20.38;57.16
65239;SHT30;51827;51.186;6.926;2023-07-13T03:59:49;20.41;56.89
65239;SHT30;51827;51.186;6.926;2023-07-13T04:00:49;20.45;56.84
65239;SHT30;51827;51.186;6.926;2023-07-13T04:01:50;20.48;56.69
65239;SHT30;51827;51.186;6.926;2023-07-13T04:02:50;20.29;56.90
65239;SHT30;51827;51.186;6.926;2023-07-13T04:03:51;20.24;57.17
65239;SHT30;51827;51.186;6.926;2023-07-13T04:04:52;20.13;57.28
65239;SHT30;51827;51.186;6.926;2023-07-13T04:05:52;20.14;57.43
65239;SHT30;51827;51.186;6.926;2023-07-13T04:06:52;20.03;56.95
65239;SHT30;51827;51.186;6.926;2023-07-13T04:07:52;19.91;57.94
65239;SHT30;51827;51.186;6.926;2023-07-13T04:08:55;19.91;57.60
65239;SHT30;51827;51.186;6.926;2023-07-13T04:09:55;19.84;57.96
65239;SHT30;51827;51.186;6.926;2023-07-13T04:10:56;19.95;57.67
65239;SHT30;51827;51.186;6.926;2023-07-13T04:11:57;20.05;57.38
65239;SHT30;51827;51.186;6.926;2023-07-13T04:12:57;20.03;57.06
65239;SHT30;51827;51.186;6.926;2023-07-13T04:13:57;20.17;57.07
65239;SHT30;51827;51.186;6.926;2023-07-13T04:15:00;20.22;57.01
65239;SHT30;51827;51.186;6.926;2023-07-13T04:16:00;19.94;57.02
65239;SHT30;51827;51.186;6.926;2023-07-13T04:17:01;19.83;57.51
65239;SHT30;51827;51.186;6.926;2023-07-13T04:18:01;19.63;57.74
65239;SHT30;51827;51.186;6.926;2023-07-13T04:19:01;19.71;58.05
65239;SHT30;51827;51.186;6.926;2023-07-13T04:20:02;19.87;57.97
65239;SHT30;51827;51.186;6.926;2023-07-13T04:21:02;20.01;57.69
65239;SHT30;51827;51.186;6.926;2023-07-13T04:22:02;20.11;57.35
65239;SHT30;51827;51.186;6.926;2023-07-13T04:23:03;20.15;57.17
65239;SHT30;51827;51.186;6.926;2023-07-13T04:24:03;20.01;57.06
65239;SHT30;51827;51.186;6.926;2023-07-13T04:25:04;20.04;57.43
65239;SHT30;51827;51.186;6.926;2023-07-13T04:26:04;20.04;57.20
65239;SHT30;51827;51.186;6.926;2023-07-13T04:27:06;20.07;57.46
65239;SHT30;51827;51.186;6.926;2023-07-13T04:28:06;20.13;57.17
65239;SHT30;51827;51.186;6.926;2023-07-13T04:29:07;20.11;56.90
65239;SHT30;51827;51.186;6.926;2023-07-13T04:30:08;19.91;57.39
65239;SHT30;51827;51.186;6.926;2023-07-13T04:31:08;19.75;58.09
65239;SHT30;51827;51.186;6.926;2023-07-13T04:32:08;19.47;58.70
65239;SHT30;51827;51.186;6.926;2023-07-13T04:33:08;19.36;58.83
65239;SHT30;51827;51.186;6.926;2023-07-13T04:34:09;19.53;58.73
65239;SHT30;51827;51.186;6.926;2023-07-13T04:35:09;19.60;58.68
65239;SHT30;51827;51.186;6.926;2023-07-13T04:36:10;19.39;58.90
65239;SHT30;51827;51.186;6.926;2023-07-13T04:37:10;19.32;59.35
65239;SHT30;51827;51.186;6.926;2023-07-13T04:38:10;19.43;59.19
65239;SHT30;51827;51.186;6.926;2023-07-13T04:39:10;19.52;58.96
65239;SHT30;51827;51.186;6.926;2023-07-13T04:40:11;19.62;58.72
65239;SHT30;51827;51.186;6.926;2023-07-13T04:41:13;19.74;58.47
65239;SHT30;51827;51.186;6.926;2023-07-13T04:42:13;19.84;58.08
65239;SHT30;51827;51.186;6.926;2023-07-13T04:43:16;19.95;57.80
65239;SHT30;51827;51.186;6.926;2023-07-13T04:44:16;20.05;57.54
65239;SHT30;51827;51.186;6.926;2023-07-13T04:45:16;20.18;57.27
65239;SHT30;51827;51.186;6.926;2023-07-13T04:46:17;20.27;57.05
65239;SHT30;51827;51.186;6.926;2023-07-13T04:47:18;20.38;56.74
65239;SHT30;51827;51.186;6.926;2023-07-13T04:48:19;20.48;56.55
65239;SHT30;51827;51.186;6.926;2023-07-13T04:49:19;20.53;56.34
65239;SHT30;51827;51.186;6.926;2023-07-13T04:50:20;20.64;56.13
65239;SHT30;51827;51.186;6.926;2023-07-13T04:51:20;20.71;56.06
65239;SHT30;51827;51.186;6.926;2023-07-13T04:52:23;20.79;55.88
65239;SHT30;51827;51.186;6.926;2023-07-13T04:53:24;20.86;55.67
65239;SHT30;51827;51.186;6.926;2023-07-13T04:54:24;20.93;55.54
65239;SHT30;51827;51.186;6.926;2023-07-13T04:55:25;20.98;55.38
65239;SHT30;51827;51.186;6.926;2023-07-13T04:56:25;21.02;55.34
65239;SHT30;51827;51.186;6.926;2023-07-13T04:57:26;21.05;55.24
65239;SHT30;51827;51.186;6.926;2023-07-13T04:58:27;21.15;55.09
65239;SHT30;51827;51.186;6.926;2023-07-13T04:59:27;21.19;54.98
65239;SHT30;51827;51.186;6.926;2023-07-13T05:00:28;21.19;54.89
65239;SHT30;51827;51.186;6.926;2023-07-13T05:01:28;21.25;54.79
65239;SHT30;51827;51.186;6.926;2023-07-13T05:02:29;21.27;54.74
65239;SHT30;51827;51.186;6.926;2023-07-13T05:03:29;21.33;54.67
65239;SHT30;51827;51.186;6.926;2023-07-13T05:04:30;21.33;54.62
65239;SHT30;51827;51.186;6.926;2023-07-13T05:05:30;21.37;54.56
65239;SHT30;51827;51.186;6.926;2023-07-13T05:06:31;21.40;54.44
65239;SHT30;51827;51.186;6.926;2023-07-13T05:07:31;21.43;54.45
65239;SHT30;51827;51.186;6.926;2023-07-13T05:08:31;21.43;54.41
65239;SHT30;51827;51.186;6.926;2023-07-13T05:09:32;21.47;54.33
65239;SHT30;51827;51.186;6.926;2023-07-13T05:10:32;21.49;54.31
65239;SHT30;51827;51.186;6.926;2023-07-13T05:11:32;21.50;54.27
65239;SHT30;51827;51.186;6.926;2023-07-13T05:12:33;21.53;54.26
65239;SHT30;51827;51.186;6.926;2023-07-13T05:13:33;21.54;54.19
65239;SHT30;51827;51.186;6.926;2023-07-13T05:14:33;21.56;54.17
65239;SHT30;51827;51.186;6.926;2023-07-13T05:15:34;21.58;54.16
65239;SHT30;51827;51.186;6.926;2023-07-13T05:16:34;21.60;54.12
65239;SHT30;51827;51.186;6.926;2023-07-13T05:17:34;21.63;54.14
65239;SHT30;51827;51.186;6.926;2023-07-13T05:18:35;21.63;54.07
65239;SHT30;51827;51.186;6.926;2023-07-13T05:19:35;21.66;54.08
65239;SHT30;51827;51.186;6.926;2023-07-13T05:20:36;21.66;54.03
65239;SHT30;51827;51.186;6.926;2023-07-13T05:21:36;21.69;54.01
65239;SHT30;51827;51.186;6.926;2023-07-13T05:22:37;21.69;53.99
65239;SHT30;51827;51.186;6.926;2023-07-13T05:23:37;21.69;53.96
65239;SHT30;51827;51.186;6.926;2023-07-13T05:24:37;21.71;53.98
65239;SHT30;51827;51.186;6.926;2023-07-13T05:25:38;21.73;53.96
65239;SHT30;51827;51.186;6.926;2023-07-13T05:26:39;21.73;53.94
65239;SHT30;51827;51.186;6.926;2023-07-13T05:27:39;21.76;53.91
65239;SHT30;51827;51.186;6.926;2023-07-13T05:28:39;21.76;53.87
65239;SHT30;51827;51.186;6.926;2023-07-13T05:29:40;21.76;53.96
65239;SHT30;51827;51.186;6.926;2023-07-13T05:30:45;21.77;53.91
65239;SHT30;51827;51.186;6.926;2023-07-13T05:31:45;21.80;53.92
65239;SHT30;51827;51.186;6.926;2023-07-13T05:32:45;21.81;53.88
65239;SHT30;51827;51.186;6.926;2023-07-13T05:33:46;21.78;53.81
65239;SHT30;51827;51.186;6.926;2023-07-13T05:34:46;21.83;53.83
65239;SHT30;51827;51.186;6.926;2023-07-13T05:35:46;21.84;53.81
65239;SHT30;51827;51.186;6.926;2023-07-13T05:36:48;21.84;53.78
65239;SHT30;51827;51.186;6.926;2023-07-13T05:37:48;21.87;53.81
65239;SHT30;51827;51.186;6.926;2023-07-13T05:38:48;21.87;53.77
65239;SHT30;51827;51.186;6.926;2023-07-13T05:39:48;21.84;53.81
65239;SHT30;51827;51.186;6.926;2023-07-13T05:40:49;21.89;53.78
65239;SHT30;51827;51.186;6.926;2023-07-13T05:41:49;21.87;53.78
65239;SHT30;51827;51.186;6.926;2023-07-13T05:42:50;21.89;53.74
65239;SHT30;51827;51.186;6.926;2023-07-13T05:43:50;21.90;53.74
65239;SHT30;51827;51.186;6.926;2023-07-13T05:44:50;21.90;53.75
65239;SHT30;51827;51.186;6.926;2023-07-13T05:45:54;21.90;53.73
65239;SHT30;51827;51.186;6.926;2023-07-13T05:46:54;21.93;53.72
65239;SHT30;51827;51.186;6.926;2023-07-13T05:47:55;21.93;53.72
65239;SHT30;51827;51.186;6.926;2023-07-13T05:48:55;21.93;53.71
65239;SHT30;51827;51.186;6.926;2023-07-13T05:49:55;21.93;53.73
65239;SHT30;51827;51.186;6.926;2023-07-13T05:50:55;21.97;53.74
65239;SHT30;51827;51.186;6.926;2023-07-13T05:51:56;21.94;53.70
65239;SHT30;51827;51.186;6.926;2023-07-13T05:52:56;21.97;53.69
65239;SHT30;51827;51.186;6.926;2023-07-13T05:53:57;21.94;53.67
65239;SHT30;51827;51.186;6.926;2023-07-13T05:55:00;21.98;53.68
65239;SHT30;51827;51.186;6.926;2023-07-13T05:56:00;21.97;53.70
65239;SHT30;51827;51.186;6.926;2023-07-13T05:57:00;21.98;53.75
65239;SHT30;51827;51.186;6.926;2023-07-13T05:58:01;22.00;53.70
65239;SHT30;51827;51.186;6.926;2023-07-13T05:59:01;21.98;53.73
65239;SHT30;51827;51.186;6.926;2023-07-13T06:00:02;22.01;53.83
65239;SHT30;51827;51.186;6.926;2023-07-13T06:01:09;22.01;53.80
65239;SHT30;51827;51.186;6.926;2023-07-13T06:02:10;22.02;53.83
65239;SHT30;51827;51.186;6.926;2023-07-13T06:03:10;22.02;53.82
65239;SHT30;51827;51.186;6.926;2023-07-13T06:04:10;22.01;53.86
65239;SHT30;51827;51.186;6.926;2023-07-13T06:05:11;22.02;53.74
65239;SHT30;51827;51.186;6.926;2023-07-13T06:06:11;22.04;53.78
65239;SHT30;51827;51.186;6.926;2023-07-13T06:07:11;22.05;53.74
65239;SHT30;51827;51.186;6.926;2023-07-13T06:08:11;22.04;53.72
65239;SHT30;51827;51.186;6.926;2023-07-13T06:09:12;22.05;53.75
65239;SHT30;51827;51.186;6.926;2023-07-13T06:10:12;22.07;53.75
65239;SHT30;51827;51.186;6.926;2023-07-13T06:11:16;22.04;53.72
65239;SHT30;51827;51.186;6.926;2023-07-13T06:12:16;22.07;53.86
65239;SHT30;51827;51.186;6.926;2023-07-13T06:13:19;22.05;53.95
65239;SHT30;51827;51.186;6.926;2023-07-13T06:14:19;22.05;53.95
65239;SHT30;51827;51.186;6.926;2023-07-13T06:15:19;22.08;53.93
65239;SHT30;51827;51.186;6.926;2023-07-13T06:16:20;22.08;53.92
65239;SHT30;51827;51.186;6.926;2023-07-13T06:17:20;22.08;53.82
65239;SHT30;51827;51.186;6.926;2023-07-13T06:18:20;22.10;53.88
65239;SHT30;51827;51.186;6.926;2023-07-13T06:19:21;22.10;53.89
65239;SHT30;51827;51.186;6.926;2023-07-13T06:20:21;22.11;53.94
65239;SHT30;51827;51.186;6.926;2023-07-13T06:21:23;22.12;54.00
65239;SHT30;51827;51.186;6.926;2023-07-13T06:22:23;22.08;54.04
65239;SHT30;51827;51.186;6.926;2023-07-13T06:23:24;22.11;53.99
65239;SHT30;51827;51.186;6.926;2023-07-13T06:24:25;22.11;53.96
65239;SHT30;51827;51.186;6.926;2023-07-13T06:25:26;22.12;53.95
65239;SHT30;51827;51.186;6.926;2023-07-13T06:26:28;22.11;53.99
65239;SHT30;51827;51.186;6.926;2023-07-13T06:27:28;22.14;54.00